Date,TemperatureHighF,TemperatureAvgF,TemperatureLowF,DewpointHighF,DewpointAvgF,DewpointLowF,HumidityHigh,HumidityAvg,HumidityLow,PressureMaxIn,PressureMinIn,WindSpeedMaxMPH,WindSpeedAvgMPH,GustSpeedMaxMPH,PrecipitationSumIn
2013-2-1,94,72,64,73,66,-100,100,85,32,29.68,29.56,7,2,14,0.99
2013-2-2,72,62,58,65,56,-100,100,86,46,29.83,29.59,6,3,24,1.17
2013-2-3,81,67,56,58,51,-100,90,61,33,29.97,29.74,7,3,17,0.00
2013-2-4,86,69,60,66,56,-100,100,69,31,30.15,29.94,6,2,15,0.00
2013-2-5,87,70,60,69,55,-100,100,67,34,30.15,30.06,7,2,13,0.00
2013-2-6,86,73,61,69,55,-100,100,58,31,30.12,29.94,8,3,17,0.00
2013-2-7,90,74,59,66,56,52,99,60,29,30.06,29.91,8,3,15,0.00
2013-2-8,97,77,61,66,57,-100,96,57,26,30.06,29.88,7,3,14,0.00
2013-2-9,98,79,64,67,61,-100,97,61,26,30.03,29.83,7,3,15,0.00
2013-2-10,97,76,67,72,62,-100,99,70,31,30.03,29.83,7,2,13,0.16
2013-2-11,73,68,65,69,64,-100,100,92,71,30.03,29.94,5,2,10,0.21
2013-2-12,81,70,66,71,60,-100,100,77,49,30.06,29.94,7,1,17,0.71
2013-2-13,88,72,62,68,53,-100,96,59,29,30.12,30.00,6,1,11,0.00
2013-2-14,88,71,59,66,55,-100,98,64,30,30.09,30.00,7,2,13,0.00
2013-2-15,82,70,63,68,60,-100,99,75,40,30.09,30.00,6,1,10,0.00
2013-2-16,88,73,63,72,58,-100,100,65,33,30.09,29.97,8,2,13,0.00
2013-2-17,85,71,60,70,56,-100,100,66,33,30.12,30.00,8,2,13,0.00
2013-2-18,88,72,61,70,58,-100,100,66,33,30.03,29.94,6,2,17,0.21
2013-2-19,90,74,62,70,62,-100,100,71,38,29.94,29.83,7,2,13,0.00
2013-2-20,90,74,65,75,62,-100,100,74,39,29.97,29.83,10,2,17,0.08
2013-2-21,88,72,65,72,61,-100,100,75,42,30.00,29.88,8,2,14,0.25
2013-2-22,81,71,64,68,63,-100,100,80,52,29.94,29.85,7,2,15,0.37
2013-2-23,76,69,67,74,67,-100,100,97,86,29.88,29.62,10,4,23,3.40
2013-2-24,95,78,70,75,68,-100,100,78,41,29.88,29.68,9,3,17,0.00
2013-2-25,91,76,70,74,65,-100,100,74,45,29.97,29.83,9,3,15,0.00
2013-2-26,86,75,69,71,64,-100,98,73,45,29.97,29.88,9,4,15,0.00
2013-2-27,95,75,68,66,58,-100,89,64,28,29.94,29.77,8,3,15,0.00
2013-2-28,98,76,65,72,63,-100,100,72,31,29.80,29.65,6,2,11,1.08